createdAt,value
2018-04-15T00:00:07.855Z,15.11
2018-04-15T00:02:35.876Z,14.88
2018-04-15T00:05:07.707Z,15.05
2018-04-15T00:07:36.036Z,15.20
2018-04-15T00:10:07.391Z,15.03
2018-04-15T00:12:35.647Z,15.04
2018-04-15T00:15:06.311Z,14.91
2018-04-15T00:17:34.364Z,14.80
2018-04-15T00:20:08.156Z,14.62
2018-04-15T00:22:36.150Z,14.49
2018-04-15T00:25:07.834Z,14.40
2018-04-15T00:27:39.751Z,14.32
2018-04-15T00:30:07.797Z,14.38
2018-04-15T00:32:35.834Z,14.39
2018-04-15T00:35:07.559Z,14.46
2018-04-15T00:37:35.596Z,14.55
2018-04-15T00:40:07.278Z,14.53
2018-04-15T00:42:35.460Z,14.58
2018-04-15T00:45:06.501Z,14.71
2018-04-15T00:47:34.533Z,14.67
2018-04-15T00:50:05.736Z,14.63
2018-04-15T00:52:34.170Z,14.50
2018-04-15T00:55:08.544Z,14.50
2018-04-15T00:57:36.991Z,14.50
2018-04-15T01:00:08.036Z,14.40
2018-04-15T01:02:36.275Z,14.39
2018-04-15T01:05:07.452Z,14.44
2018-04-15T01:07:35.491Z,14.32
2018-04-15T01:10:06.447Z,14.39
2018-04-15T01:12:34.773Z,14.50
2018-04-15T01:15:06.667Z,14.46
2018-04-15T01:17:35.506Z,14.42
2018-04-15T01:20:06.468Z,14.31
2018-04-15T01:22:34.596Z,14.37
2018-04-15T01:25:05.732Z,14.35
2018-04-15T01:27:33.748Z,14.33
2018-04-15T01:32:34.935Z,14.41
2018-04-15T01:35:10.305Z,14.30
2018-04-15T01:37:38.302Z,14.27
2018-04-15T01:40:06.374Z,14.19
2018-04-15T01:42:34.420Z,14.14
2018-04-15T01:45:06.431Z,14.15
2018-04-15T01:47:34.473Z,13.92
2018-04-15T01:50:05.623Z,13.82
2018-04-15T01:52:33.649Z,13.95
2018-04-15T01:55:04.739Z,14.20
2018-04-15T01:57:33.032Z,14.25
2018-04-15T02:00:02.582Z,14.26
2018-04-15T02:02:33.203Z,14.21
2018-04-15T02:05:04.995Z,14.18
2018-04-15T02:07:33.047Z,14.26
2018-04-15T02:10:02.808Z,14.17
2018-04-15T02:12:32.173Z,14.09
2018-04-15T02:15:00.203Z,14.18
2018-04-15T02:17:28.218Z,14.16
2018-04-15T02:19:56.246Z,14.16
2018-04-15T02:22:24.276Z,14.18
2018-04-15T02:24:52.327Z,14.09
2018-04-15T02:27:20.534Z,13.98
2018-04-15T02:29:49.036Z,14.02
2018-04-15T02:32:17.006Z,13.97
2018-04-15T02:34:45.063Z,13.99
2018-04-15T02:37:13.079Z,14.01
2018-04-15T02:39:41.130Z,14.01
2018-04-15T02:42:09.166Z,14.07
2018-04-15T02:44:37.217Z,14.01
2018-04-15T02:47:05.239Z,14.10
2018-04-15T02:49:33.278Z,14.08
2018-04-15T02:52:01.319Z,13.91
2018-04-15T02:54:29.368Z,13.93
2018-04-15T02:56:57.371Z,13.98
2018-04-15T02:59:25.579Z,14.05
2018-04-15T03:01:53.890Z,14.11
2018-04-15T03:04:21.899Z,14.04
2018-04-15T03:06:50.293Z,14.02
2018-04-15T03:09:18.317Z,14.01
2018-04-15T03:11:46.335Z,13.99
2018-04-15T03:14:14.354Z,13.68
2018-04-15T03:16:42.411Z,13.75
2018-04-15T03:19:10.419Z,13.57
2018-04-15T03:21:38.686Z,13.52
2018-04-15T03:24:06.889Z,13.37
2018-04-15T03:26:34.935Z,13.52
2018-04-15T03:29:02.967Z,13.64
2018-04-15T03:31:31.340Z,13.81
2018-04-15T03:33:59.373Z,13.54
2018-04-15T03:36:27.398Z,13.62
2018-04-15T03:38:55.398Z,13.50
2018-04-15T03:41:23.473Z,13.40
2018-04-15T03:43:51.538Z,13.42
2018-04-15T03:46:20.014Z,13.55
2018-04-15T03:48:48.251Z,13.66
2018-04-15T03:51:16.263Z,13.81
2018-04-15T03:53:44.297Z,13.88
2018-04-15T03:56:12.310Z,13.84
2018-04-15T03:58:40.403Z,13.80
2018-04-15T04:01:08.651Z,13.84
2018-04-15T04:03:36.697Z,13.79
2018-04-15T04:06:05.051Z,13.85
2018-04-15T04:08:33.078Z,13.71
2018-04-15T04:11:01.100Z,13.30
2018-04-15T04:13:29.396Z,13.47
2018-04-15T04:15:58.055Z,13.61
2018-04-15T04:18:38.566Z,13.68
2018-04-15T04:21:18.407Z,13.72
2018-04-15T04:23:58.452Z,13.62
2018-04-15T04:26:26.483Z,13.52
2018-04-15T04:28:55.431Z,13.44
2018-04-15T04:31:23.491Z,13.28
2018-04-15T04:33:51.508Z,13.44
2018-04-15T04:36:19.724Z,13.31
2018-04-15T04:38:47.830Z,13.40
2018-04-15T04:41:15.863Z,13.33
2018-04-15T04:43:43.922Z,13.56
2018-04-15T04:46:11.959Z,13.62
2018-04-15T04:48:40.103Z,13.47
2018-04-15T04:51:08.135Z,13.41
2018-04-15T04:53:36.273Z,13.44
2018-04-15T04:56:04.298Z,13.32
2018-04-15T04:58:32.353Z,13.49
2018-04-15T05:01:00.430Z,13.74
2018-04-15T05:03:32.611Z,13.72
2018-04-15T05:06:00.643Z,13.52
2018-04-15T05:08:29.316Z,13.44
2018-04-15T05:10:57.897Z,13.55
2018-04-15T05:13:25.913Z,13.55
2018-04-15T05:15:53.950Z,13.72
2018-04-15T05:18:22.151Z,13.81
2018-04-15T05:20:50.197Z,13.78
2018-04-15T05:23:18.203Z,13.71
2018-04-15T05:25:46.241Z,13.60
2018-04-15T05:28:14.338Z,13.59
2018-04-15T05:30:42.355Z,13.48
2018-04-15T05:33:10.386Z,13.52
2018-04-15T05:35:38.587Z,13.67
2018-04-15T05:38:06.624Z,13.81
2018-04-15T05:40:34.899Z,13.81
2018-04-15T05:43:02.939Z,13.83
2018-04-15T05:45:31.000Z,13.88
2018-04-15T05:47:59.124Z,13.74
2018-04-15T05:50:27.122Z,13.79
2018-04-15T05:52:55.175Z,13.68
2018-04-15T05:55:23.192Z,13.63
2018-04-15T05:57:52.511Z,13.69
2018-04-15T06:00:20.578Z,13.77
2018-04-15T06:02:48.793Z,13.68
2018-04-15T06:05:16.847Z,13.50
2018-04-15T06:07:45.065Z,13.52
2018-04-15T06:10:13.073Z,13.65
2018-04-15T06:12:41.099Z,13.57
2018-04-15T06:15:09.113Z,13.36
2018-04-15T06:17:37.124Z,13.52
2018-04-15T06:20:05.636Z,13.65
2018-04-15T06:22:33.663Z,13.75
2018-04-15T06:25:06.158Z,13.77
2018-04-15T06:27:34.194Z,13.76
2018-04-15T06:30:05.462Z,13.71
2018-04-15T06:32:33.473Z,13.83
2018-04-15T06:35:07.843Z,13.49
2018-04-15T06:37:35.879Z,13.53
2018-04-15T06:40:08.984Z,13.67
2018-04-15T06:42:37.033Z,13.39
2018-04-15T06:45:06.042Z,13.59
2018-04-15T06:47:34.112Z,13.35
2018-04-15T06:50:05.306Z,13.50
2018-04-15T06:52:33.311Z,13.64
2018-04-15T06:55:07.835Z,13.63
2018-04-15T06:57:35.848Z,14.01
2018-04-15T07:00:06.831Z,13.94
2018-04-15T07:02:34.847Z,13.94
2018-04-15T07:05:05.690Z,13.93
2018-04-15T07:07:33.687Z,14.10
2018-04-15T07:10:05.986Z,14.17
2018-04-15T07:12:33.957Z,14.24
2018-04-15T07:15:08.782Z,14.31
2018-04-15T07:17:41.252Z,14.24
2018-04-15T07:20:09.391Z,14.89
2018-04-15T07:22:37.725Z,15.56
2018-04-15T07:25:05.701Z,15.31
2018-04-15T07:27:33.701Z,15.75
2018-04-15T07:30:05.866Z,15.92
2018-04-15T07:32:33.885Z,15.50
2018-04-15T07:35:06.518Z,15.76
2018-04-15T07:37:34.591Z,14.73
2018-04-15T07:40:06.441Z,15.16
2018-04-15T07:42:35.109Z,14.63
2018-04-15T07:45:05.664Z,14.63
2018-04-15T07:47:33.707Z,15.06
2018-04-15T07:50:08.178Z,15.53
2018-04-15T07:52:36.186Z,16.44
2018-04-15T07:55:07.168Z,16.98
2018-04-15T07:57:35.248Z,16.60
2018-04-15T08:00:06.940Z,17.94
2018-04-15T08:02:35.695Z,17.97
2018-04-15T08:05:07.549Z,18.17
2018-04-15T08:07:35.765Z,16.41
2018-04-15T08:10:07.264Z,17.84
2018-04-15T08:12:35.300Z,16.42
2018-04-15T08:15:06.755Z,17.70
2018-04-15T08:17:34.764Z,16.24
2018-04-15T08:20:05.864Z,15.74
2018-04-15T08:22:33.899Z,16.31
2018-04-15T08:25:06.724Z,16.58
2018-04-15T08:27:34.764Z,16.53
2018-04-15T08:30:06.044Z,16.57
2018-04-15T08:32:34.591Z,17.24
2018-04-15T08:35:06.900Z,17.22
2018-04-15T08:37:35.460Z,17.17
2018-04-15T08:40:07.220Z,16.93
2018-04-15T08:42:35.256Z,17.94
2018-04-15T08:45:05.754Z,16.87
2018-04-15T08:47:33.885Z,17.84
2018-04-15T08:50:09.174Z,18.48
2018-04-15T08:52:37.170Z,20.20
2018-04-15T08:55:06.114Z,17.23
2018-04-15T08:57:34.292Z,19.78
2018-04-15T09:00:06.191Z,18.37
2018-04-15T09:02:34.193Z,19.66
2018-04-15T09:05:05.638Z,19.37
2018-04-15T09:07:33.636Z,19.03
2018-04-15T09:10:08.077Z,17.38
2018-04-15T09:12:36.084Z,16.60
2018-04-15T09:15:05.838Z,16.46
2018-04-15T09:17:33.843Z,16.71
2018-04-15T09:20:06.021Z,16.55
2018-04-15T09:22:34.038Z,17.25
2018-04-15T09:25:05.601Z,17.92
2018-04-15T09:27:33.763Z,17.81
2018-04-15T09:30:08.302Z,17.39
2018-04-15T09:32:36.380Z,18.39
2018-04-15T09:35:07.613Z,17.57
2018-04-15T09:37:35.655Z,17.50
2018-04-15T09:40:06.943Z,18.20
2018-04-15T09:42:34.973Z,19.27
2018-04-15T09:45:05.879Z,18.96
2018-04-15T09:47:35.221Z,18.99
2018-04-15T09:50:06.665Z,19.48
2018-04-15T09:52:34.644Z,18.48
2018-04-15T09:55:05.997Z,18.66
2018-04-15T09:57:34.008Z,18.32
2018-04-15T10:00:08.930Z,18.44
2018-04-15T10:02:36.975Z,18.77
2018-04-15T10:05:06.265Z,19.55
2018-04-15T10:07:34.259Z,18.90
2018-04-15T10:10:06.699Z,18.55
2018-04-15T10:12:34.732Z,19.79
2018-04-15T10:15:06.624Z,19.75
2018-04-15T10:17:34.658Z,20.54
2018-04-15T10:20:05.894Z,22.91
2018-04-15T10:22:33.916Z,23.81
2018-04-15T10:25:05.776Z,19.84
2018-04-15T10:27:33.813Z,20.56
2018-04-15T10:30:11.634Z,20.20
2018-04-15T10:32:39.723Z,20.12
2018-04-15T10:35:07.716Z,20.37
2018-04-15T10:37:35.711Z,21.03
2018-04-15T10:40:07.326Z,20.06
2018-04-15T10:42:36.845Z,20.34
2018-04-15T10:45:06.316Z,21.01
2018-04-15T10:47:34.323Z,20.51
2018-04-15T10:50:05.921Z,20.64
2018-04-15T10:52:33.910Z,20.78
2018-04-15T10:55:06.383Z,19.34
2018-04-15T10:57:34.624Z,18.53
2018-04-15T11:00:05.706Z,19.09
2018-04-15T11:02:33.802Z,19.41
2018-04-15T11:05:08.373Z,19.26
2018-04-15T11:07:36.351Z,19.62
2018-04-15T11:10:06.199Z,20.47
2018-04-15T11:12:34.270Z,20.48
2018-04-15T11:15:09.073Z,21.58
2018-04-15T11:17:37.152Z,21.59
2018-04-15T11:20:06.251Z,21.61
2018-04-15T11:22:34.356Z,20.51
2018-04-15T11:25:09.189Z,21.33
2018-04-15T11:27:37.240Z,22.41
2018-04-15T11:30:06.095Z,23.00
2018-04-15T11:32:34.157Z,22.70
2018-04-15T11:35:08.991Z,21.99
2018-04-15T11:37:37.009Z,21.53
2018-04-15T11:40:06.370Z,20.49
2018-04-15T11:42:34.475Z,20.72
2018-04-15T11:45:07.612Z,20.51
2018-04-15T11:47:35.635Z,20.00
2018-04-15T11:50:07.325Z,20.57
2018-04-15T11:52:35.744Z,20.68
2018-04-15T11:55:07.623Z,19.56
2018-04-15T11:57:35.655Z,19.66
2018-04-15T12:00:07.532Z,19.23
2018-04-15T12:02:35.552Z,20.00
2018-04-15T12:05:07.090Z,20.34
2018-04-15T12:07:39.454Z,20.75
2018-04-15T12:10:07.512Z,20.77
2018-04-15T12:12:35.565Z,20.83
2018-04-15T12:15:06.628Z,20.84
2018-04-15T12:17:34.848Z,20.71
2018-04-15T12:20:05.960Z,21.34
2018-04-15T12:22:34.199Z,22.03
2018-04-15T12:25:06.828Z,21.03
2018-04-15T12:27:34.818Z,20.61
2018-04-15T12:30:06.687Z,20.66
2018-04-15T12:32:34.747Z,20.45
2018-04-15T12:35:06.282Z,20.09
2018-04-15T12:37:34.875Z,19.98
2018-04-15T12:40:06.033Z,20.25
2018-04-15T12:42:34.516Z,20.91
2018-04-15T12:45:05.855Z,20.63
2018-04-15T12:47:34.114Z,20.20
2018-04-15T12:50:05.404Z,20.75
2018-04-15T12:52:33.447Z,20.93
2018-04-15T12:57:35.313Z,20.60
2018-04-15T13:00:06.243Z,20.06
2018-04-15T13:02:34.284Z,19.99
2018-04-15T13:05:08.934Z,20.16
2018-04-15T13:07:36.947Z,20.33
2018-04-15T13:10:06.010Z,20.76
2018-04-15T13:12:34.043Z,20.76
2018-04-15T13:15:08.471Z,20.20
2018-04-15T13:17:36.520Z,20.20
2018-04-15T13:20:05.975Z,20.32
2018-04-15T13:22:34.624Z,20.05
2018-04-15T13:25:06.202Z,20.31
2018-04-15T13:27:34.238Z,20.22
2018-04-15T13:30:05.585Z,20.50
2018-04-15T13:32:33.659Z,19.82
2018-04-15T13:35:06.093Z,20.18
2018-04-15T13:37:34.146Z,20.43
2018-04-15T13:40:05.706Z,20.23
2018-04-15T13:42:33.732Z,19.98
2018-04-15T13:45:04.830Z,20.11
2018-04-15T13:47:32.858Z,20.15
2018-04-15T13:50:03.909Z,20.40
2018-04-15T13:52:32.464Z,20.01
2018-04-15T13:55:00.477Z,19.76
2018-04-15T13:57:31.567Z,19.81
2018-04-15T13:59:59.644Z,19.95
2018-04-15T14:02:27.668Z,20.53
2018-04-15T14:04:55.720Z,20.77
2018-04-15T14:07:24.661Z,20.74
2018-04-15T14:09:52.675Z,20.72
2018-04-15T14:12:20.693Z,20.89
2018-04-15T14:14:49.088Z,20.80
2018-04-15T14:17:17.735Z,21.00
2018-04-15T14:19:45.783Z,20.90
2018-04-15T14:22:13.793Z,20.71
2018-04-15T14:24:41.853Z,21.29
2018-04-15T14:27:10.417Z,21.15
2018-04-15T14:29:38.463Z,21.49
2018-04-15T14:34:40.713Z,20.55
2018-04-15T14:37:08.700Z,20.28
2018-04-15T14:39:37.348Z,20.46
2018-04-15T14:42:05.421Z,21.04
2018-04-15T14:44:33.428Z,21.04
2018-04-15T14:47:01.457Z,20.90
2018-04-15T14:49:29.472Z,21.24
2018-04-15T14:51:57.593Z,21.28
2018-04-15T14:54:25.635Z,20.67
2018-04-15T14:56:53.643Z,20.64
2018-04-15T14:59:21.657Z,21.07
2018-04-15T15:01:49.981Z,21.31
2018-04-15T15:04:18.191Z,20.77
2018-04-15T15:06:46.261Z,20.33
2018-04-15T15:09:14.248Z,20.64
2018-04-15T15:11:43.065Z,20.52
2018-04-15T15:14:11.085Z,20.30
2018-04-15T15:16:39.107Z,20.18
2018-04-15T15:19:07.243Z,20.64
2018-04-15T15:21:35.274Z,20.44
2018-04-15T15:24:03.294Z,20.24
2018-04-15T15:26:31.340Z,20.28
2018-04-15T15:28:59.370Z,20.73
2018-04-15T15:31:27.391Z,20.88
2018-04-15T15:33:55.667Z,20.46
2018-04-15T15:36:23.684Z,20.36
2018-04-15T15:38:51.822Z,20.77
2018-04-15T15:41:19.814Z,21.01
2018-04-15T15:43:47.841Z,21.14
2018-04-15T15:46:15.863Z,21.04
2018-04-15T15:48:43.953Z,20.86
2018-04-15T15:51:11.942Z,20.75
2018-04-15T15:53:39.972Z,21.09
2018-04-15T15:56:07.979Z,21.24
2018-04-15T15:58:36.345Z,21.25
2018-04-15T16:01:04.351Z,21.20
2018-04-15T16:03:32.474Z,21.23
2018-04-15T16:06:00.536Z,20.90
2018-04-15T16:08:28.573Z,20.82
2018-04-15T16:10:56.573Z,20.94
2018-04-15T16:13:24.596Z,20.71
2018-04-15T16:15:52.623Z,20.93
2018-04-15T16:18:20.631Z,20.94
2018-04-15T16:20:48.692Z,20.36
2018-04-15T16:23:16.709Z,20.51
2018-04-15T16:25:45.296Z,20.51
2018-04-15T16:28:13.330Z,20.73
2018-04-15T16:30:41.700Z,20.51
2018-04-15T16:33:09.701Z,20.46
2018-04-15T16:35:38.458Z,20.14
2018-04-15T16:38:06.532Z,19.86
2018-04-15T16:40:34.541Z,20.12
2018-04-15T16:43:02.566Z,20.20
2018-04-15T16:45:30.621Z,20.24
2018-04-15T16:47:58.685Z,19.98
2018-04-15T16:50:26.677Z,20.14
2018-04-15T16:52:55.030Z,19.91
2018-04-15T16:55:23.047Z,19.78
2018-04-15T16:57:51.101Z,19.82
2018-04-15T17:00:19.118Z,19.82
2018-04-15T17:02:47.154Z,19.61
2018-04-15T17:05:15.163Z,19.66
2018-04-15T17:07:43.183Z,19.86
2018-04-15T17:10:11.197Z,19.89
2018-04-15T17:12:39.260Z,19.74
2018-04-15T17:15:07.258Z,19.54
2018-04-15T17:17:35.308Z,19.65
2018-04-15T17:20:07.484Z,19.42
2018-04-15T17:22:35.579Z,19.47
2018-04-15T17:25:07.388Z,19.49
2018-04-15T17:27:35.376Z,19.34
2018-04-15T17:30:06.907Z,19.18
2018-04-15T17:32:34.935Z,19.05
2018-04-15T17:35:06.413Z,19.03
2018-04-15T17:37:34.445Z,18.68
2018-04-15T17:40:10.097Z,18.25
2018-04-15T17:42:38.150Z,18.21
2018-04-15T17:45:06.923Z,18.34
2018-04-15T17:47:34.927Z,18.37
2018-04-15T17:50:07.065Z,18.44
2018-04-15T17:52:35.091Z,18.08
2018-04-15T17:55:06.482Z,17.98
2018-04-15T17:57:34.481Z,17.95
2018-04-15T18:00:09.156Z,17.87
2018-04-15T18:02:37.209Z,17.82
2018-04-15T18:05:06.487Z,17.83
2018-04-15T18:07:34.499Z,17.69
2018-04-15T18:10:08.773Z,17.80
2018-04-15T18:12:36.786Z,17.78
2018-04-15T18:15:08.067Z,17.65
2018-04-15T18:17:36.108Z,17.81
2018-04-15T18:20:07.783Z,17.90
2018-04-15T18:22:35.930Z,17.79
2018-04-15T18:25:07.505Z,17.72
2018-04-15T18:27:35.552Z,17.70
2018-04-15T18:30:11.436Z,17.65
2018-04-15T18:32:39.473Z,17.60
2018-04-15T18:35:07.572Z,17.38
2018-04-15T18:37:35.597Z,17.30
2018-04-15T18:40:06.905Z,17.33
2018-04-15T18:42:34.953Z,17.27
2018-04-15T18:45:06.505Z,17.05
2018-04-15T18:52:34.264Z,16.79
2018-04-15T18:55:08.729Z,16.69
2018-04-15T18:57:36.778Z,16.60
2018-04-15T19:00:06.401Z,16.60
2018-04-15T19:02:34.809Z,16.40
2018-04-15T19:05:06.648Z,16.21
2018-04-15T19:07:34.666Z,16.13
2018-04-15T19:10:05.764Z,16.21
2018-04-15T19:12:33.843Z,16.07
2018-04-15T19:15:05.505Z,16.00
2018-04-15T19:17:33.556Z,15.99
2018-04-15T19:20:04.710Z,15.97
2018-04-15T19:22:32.747Z,15.90
2018-04-15T19:25:00.795Z,15.85
2018-04-15T19:27:34.440Z,15.72
2018-04-15T19:30:06.207Z,15.70
2018-04-15T19:32:34.276Z,15.65
2018-04-15T19:35:08.805Z,15.63
2018-04-15T19:37:36.917Z,15.54
2018-04-15T19:40:06.682Z,15.46
2018-04-15T19:42:34.855Z,15.44
2018-04-15T19:45:06.684Z,15.41
2018-04-15T19:47:34.746Z,15.40
2018-04-15T19:50:05.997Z,15.37
2018-04-15T19:52:34.032Z,15.10
2018-04-15T19:55:05.258Z,15.09
2018-04-15T19:57:33.258Z,15.22
2018-04-15T20:00:06.148Z,14.80
2018-04-15T20:02:34.150Z,14.88
2018-04-15T20:05:05.115Z,15.03
2018-04-15T20:07:33.123Z,15.00
2018-04-15T20:10:02.588Z,15.08
2018-04-15T20:12:32.213Z,15.03
2018-04-15T20:15:00.234Z,14.91
2018-04-15T20:17:28.272Z,14.87
2018-04-15T20:19:56.256Z,14.89
2018-04-15T20:22:24.576Z,14.64
2018-04-15T20:24:52.570Z,14.67
2018-04-15T20:27:20.670Z,14.81
2018-04-15T20:29:48.723Z,14.45
2018-04-15T20:32:16.757Z,14.64
2018-04-15T20:34:44.852Z,14.63
2018-04-15T20:37:12.932Z,14.65
2018-04-15T20:39:40.953Z,14.63
2018-04-15T20:42:09.020Z,14.54
2018-04-15T20:44:37.074Z,14.54
2018-04-15T20:47:05.067Z,14.53
2018-04-15T20:49:33.306Z,14.52
2018-04-15T20:52:01.355Z,14.64
2018-04-15T20:54:29.398Z,14.53
2018-04-15T20:56:57.427Z,14.73
2018-04-15T20:59:25.450Z,14.93
2018-04-15T21:01:53.482Z,14.97
2018-04-15T21:04:21.513Z,14.63
2018-04-15T21:06:49.522Z,14.81
2018-04-15T21:09:17.739Z,14.62
2018-04-15T21:11:45.740Z,14.54
2018-04-15T21:14:13.791Z,14.50
2018-04-15T21:16:42.163Z,14.45
2018-04-15T21:19:10.259Z,14.46
2018-04-15T21:21:38.292Z,14.47
2018-04-15T21:24:06.867Z,14.32
2018-04-15T21:26:34.896Z,14.34
2018-04-15T21:29:02.941Z,14.28
2018-04-15T21:31:30.974Z,14.33
2018-04-15T21:33:58.968Z,14.27
2018-04-15T21:36:26.988Z,14.21
2018-04-15T21:38:54.999Z,14.11
2018-04-15T21:41:23.039Z,14.13
2018-04-15T21:43:51.058Z,14.18
2018-04-15T21:46:20.022Z,14.16
2018-04-15T21:48:48.060Z,14.12
2018-04-15T21:51:16.077Z,14.20
2018-04-15T21:53:44.114Z,14.05
2018-04-15T21:56:12.157Z,14.09
2018-04-15T21:58:40.164Z,14.15
2018-04-15T22:01:08.195Z,13.99
2018-04-15T22:03:36.308Z,13.99
2018-04-15T22:06:04.294Z,14.03
2018-04-15T22:08:32.310Z,13.98
2018-04-15T22:11:00.664Z,13.91
2018-04-15T22:13:28.806Z,13.70
2018-04-15T22:15:56.827Z,13.68
2018-04-15T22:18:24.880Z,13.70
2018-04-15T22:20:52.889Z,13.65
2018-04-15T22:23:21.248Z,13.68
2018-04-15T22:25:49.304Z,13.73
2018-04-15T22:28:17.304Z,13.67
2018-04-15T22:30:45.341Z,13.60
2018-04-15T22:33:13.359Z,13.53
2018-04-15T22:35:41.379Z,13.57
2018-04-15T22:38:09.571Z,13.64
2018-04-15T22:40:37.842Z,13.56
2018-04-15T22:43:05.886Z,13.41
2018-04-15T22:45:33.918Z,13.41
2018-04-15T22:48:05.112Z,13.49
2018-04-15T22:50:36.966Z,13.44
2018-04-15T22:53:05.009Z,13.32
2018-04-15T22:55:33.004Z,13.32
2018-04-15T22:58:01.209Z,13.35
2018-04-15T23:00:29.240Z,13.40
2018-04-15T23:02:57.224Z,13.31
2018-04-15T23:05:25.300Z,13.27
2018-04-15T23:07:53.558Z,13.31
2018-04-15T23:10:21.563Z,13.26
2018-04-15T23:12:49.609Z,13.12
2018-04-15T23:15:17.650Z,12.88
2018-04-15T23:17:45.693Z,12.84
2018-04-15T23:20:13.717Z,13.07
2018-04-15T23:22:41.742Z,13.10
2018-04-15T23:25:09.760Z,13.11
2018-04-15T23:27:37.772Z,13.07
2018-04-15T23:30:09.747Z,13.01
2018-04-15T23:32:37.758Z,13.05
2018-04-15T23:35:06.093Z,13.12
2018-04-15T23:37:34.099Z,12.96
2018-04-15T23:40:08.507Z,12.95
2018-04-15T23:42:36.924Z,12.85
2018-04-15T23:45:06.722Z,12.71
2018-04-15T23:47:34.732Z,12.94
2018-04-15T23:50:05.874Z,12.97
2018-04-15T23:52:38.130Z,12.87
2018-04-15T23:55:06.470Z,12.89
2018-04-15T23:57:34.443Z,12.78
